Time;durP1;ratioP1;P1;durP2;ratioP2;P2;SDS_P1;SDS_P2;PMS_P1;PMS_P2;Temp;Humidity;BMP_temperature;BMP_pressure;BME280_temperature;BME280_humidity;BME280_pressure;Samples;Min_cycle;Max_cycle;Signal;HPM_P1;HPM_P2
2022/08/02 00:02:37;;;;;;;8.90;3.55;;;31.80;35.50;;;;;;21249383;27;20043;-58
2022/08/02 00:12:39;;;;;;;9.07;3.72;;;31.60;37.20;;;;;;21248239;27;20088;-58
2022/08/02 00:22:41;;;;;;;10.38;3.60;;;31.50;39.30;;;;;;21247349;28;20074;-58
2022/08/02 00:32:42;;;;;;;7.00;4.45;;;31.30;39.60;;;;;;21247989;28;20411;-58
2022/08/02 00:42:44;;;;;;;8.88;4.78;;;31.20;40.00;;;;;;21246628;27;20055;-57
2022/08/02 00:52:45;;;;;;;7.60;3.60;;;31.10;40.80;;;;;;21262158;27;20051;-57
2022/08/02 01:02:47;;;;;;;6.82;3.33;;;31.00;41.20;;;;;;21262745;27;20047;-57
2022/08/02 01:12:49;;;;;;;6.57;3.70;;;30.80;40.40;;;;;;21261530;27;20460;-57
2022/08/02 01:23:20;;;;;;;7.28;3.92;;;30.70;39.30;;;;;;21259817;27;20047;-58
2022/08/02 01:33:40;;;;;;;12.07;4.00;;;30.60;39.70;;;;;;21254999;27;20055;-57
2022/08/02 01:43:46;;;;;;;9.80;3.95;;;30.40;40.20;;;;;;21257303;27;20058;-56
2022/08/02 01:53:50;;;;;;;8.73;4.72;;;30.30;41.40;;;;;;21258677;27;20100;-56
2022/08/02 02:03:52;;;;;;;6.97;4.20;;;30.10;43.10;;;;;;21256319;27;20145;-57
2022/08/02 02:14:02;;;;;;;9.02;3.65;;;30.00;43.70;;;;;;21256437;27;20134;-57
2022/08/02 02:24:08;;;;;;;7.55;3.90;;;30.00;42.60;;;;;;21255204;27;20047;-58
2022/08/02 02:34:09;;;;;;;7.70;3.78;;;29.90;42.00;;;;;;21255612;27;20479;-58
2022/08/02 02:44:15;;;;;;;9.02;3.55;;;29.80;42.40;;;;;;21253454;27;20051;-57
2022/08/02 02:54:18;;;;;;;8.95;3.58;;;29.70;40.10;;;;;;21254001;27;20592;-56
2022/08/02 03:04:20;;;;;;;6.15;3.88;;;29.70;40.00;;;;;;21251841;27;20047;-57
2022/08/02 03:14:24;;;;;;;6.65;3.40;;;29.60;38.80;;;;;;21250848;27;20058;-57
2022/08/02 03:24:26;;;;;;;5.43;3.15;;;29.60;38.40;;;;;;21250651;27;20051;-56
2022/08/02 03:34:28;;;;;;;6.38;3.15;;;29.60;38.00;;;;;;21250958;27;20051;-58
2022/08/02 03:44:31;;;;;;;5.13;3.35;;;29.50;38.30;;;;;;21249376;27;20047;-57
2022/08/02 03:54:34;;;;;;;4.00;3.38;;;29.50;38.60;;;;;;21249801;27;20054;-58
2022/08/02 04:04:36;;;;;;;5.82;3.47;;;29.30;38.80;;;;;;21249708;27;20055;-56
2022/08/02 04:14:38;;;;;;;8.80;3.67;;;29.30;39.40;;;;;;21247952;27;20055;-55
2022/08/02 04:24:46;;;;;;;4.82;3.72;;;29.20;39.70;;;;;;21258574;27;20043;-54
2022/08/02 04:34:47;;;;;;;6.13;3.25;;;29.10;39.20;;;;;;21265793;27;20442;-56
2022/08/02 04:44:50;;;;;;;5.60;3.08;;;29.00;39.30;;;;;;21263619;27;20072;-57
2022/08/02 04:54:52;;;;;;;4.15;3.53;;;29.00;38.90;;;;;;21262321;27;20051;-57
2022/08/02 05:04:54;;;;;;;5.50;3.53;;;28.90;38.60;;;;;;21263085;27;20471;-57
2022/08/02 05:14:56;;;;;;;6.15;3.38;;;28.80;38.50;;;;;;21261256;27;20050;-59
2022/08/02 05:24:58;;;;;;;7.63;3.60;;;28.80;38.40;;;;;;21260328;27;20061;-57
2022/08/02 05:35:01;;;;;;;6.22;3.20;;;28.80;38.30;;;;;;21259353;27;20141;-57
2022/08/02 05:45:04;;;;;;;6.90;3.15;;;28.70;37.70;;;;;;21258437;27;20054;-56
2022/08/02 05:55:14;;;;;;;8.80;3.53;;;28.60;37.70;;;;;;21257530;27;20062;-55
2022/08/02 06:05:19;;;;;;;;;;;28.60;38.10;;;;;;21259067;27;20413;-57
2022/08/02 06:15:22;;;;;;;7.35;3.55;;;28.60;38.10;;;;;;21256436;27;20358;-59
2022/08/02 06:25:25;;;;;;;6.80;3.55;;;28.70;38.50;;;;;;21255321;27;20123;-58
2022/08/02 06:36:06;;;;;;;5.50;3.28;;;28.70;38.90;;;;;;21254815;27;20047;-58
2022/08/02 06:46:08;;;;;;;;;;;29.00;38.40;;;;;;20908862;28;20041;-56
2022/08/02 06:56:10;;;;;;;8.38;3.83;;;29.10;38.40;;;;;;20908457;28;20328;-56
2022/08/02 07:06:12;;;;;;;11.38;3.80;;;29.70;37.90;;;;;;20907477;28;20152;-58
2022/08/02 07:16:14;;;;;;;11.80;3.67;;;29.80;38.00;;;;;;21000251;27;20043;-55
2022/08/02 07:26:16;;;;;;;5.47;3.80;;;30.20;38.40;;;;;;21233534;27;20055;-55
2022/08/02 07:36:18;;;;;;;9.82;3.97;;;30.70;38.00;;;;;;21231283;27;20047;-56
2022/08/02 07:46:20;;;;;;;7.82;3.40;;;31.00;37.60;;;;;;21249497;27;20126;-57
2022/08/02 07:56:23;;;;;;;11.32;3.70;;;31.40;36.20;;;;;;21247524;27;20091;-56
2022/08/02 08:06:24;;;;;;;9.95;4.20;;;31.70;36.20;;;;;;21229767;27;20039;-58
2022/08/02 08:16:27;;;;;;;9.30;4.97;;;32.00;37.20;;;;;;21249159;27;20403;-58
2022/08/02 08:26:29;;;;;;;8.55;4.13;;;32.20;37.80;;;;;;21247327;28;20348;-58
2022/08/02 08:36:31;;;;;;;8.43;3.40;;;32.60;38.00;;;;;;21246822;27;20051;-59
2022/08/02 08:46:36;;;;;;;7.65;3.33;;;32.80;37.80;;;;;;21246220;28;20055;-58
2022/08/02 08:56:39;;;;;;;8.65;3.30;;;33.00;37.30;;;;;;21246593;28;20051;-58
2022/08/02 09:06:41;;;;;;;9.93;3.97;;;33.10;36.80;;;;;;21249041;27;20039;-56
2022/08/02 09:16:43;;;;;;;4.85;2.90;;;33.00;37.40;;;;;;21260416;27;20047;-56
2022/08/02 09:26:46;;;;;;;8.25;3.15;;;33.20;36.90;;;;;;21259898;27;20104;-59
2022/08/02 09:36:48;;;;;;;9.35;4.43;;;33.20;37.30;;;;;;21259202;27;20054;-55
2022/08/02 09:46:50;;;;;;;7.45;3.13;;;33.40;36.80;;;;;;21258751;27;20047;-57
2022/08/02 09:56:55;;;;;;;9.27;3.75;;;33.20;37.10;;;;;;21257971;27;20047;-58
2022/08/02 10:07:02;;;;;;;6.90;3.70;;;33.20;37.30;;;;;;21257151;27;20097;-58
2022/08/02 10:17:05;;;;;;;8.15;4.05;;;33.30;37.10;;;;;;21254272;27;20061;-57
2022/08/02 10:27:14;;;;;;;8.70;3.63;;;33.20;37.50;;;;;;21255508;27;20071;-57
2022/08/02 10:37:17;;;;;;;9.33;4.07;;;33.50;36.90;;;;;;21255407;27;20500;-59
2022/08/02 10:47:25;;;;;;;9.07;4.47;;;33.70;36.40;;;;;;21254740;27;20384;-57
2022/08/02 10:57:32;;;;;;;10.07;4.35;;;33.80;36.50;;;;;;21253856;27;20169;-59
2022/08/02 11:07:43;;;;;;;9.27;3.78;;;33.90;36.60;;;;;;21251578;27;20043;-57
2022/08/02 11:17:53;;;;;;;8.77;4.40;;;34.10;36.40;;;;;;21250053;27;20130;-57
2022/08/02 11:28:07;;;;;;;9.30;4.30;;;34.40;35.50;;;;;;21249452;27;20062;-57
2022/08/02 11:38:20;;;;;;;11.85;4.95;;;34.70;35.30;;;;;;21249329;27;20047;-56
2022/08/02 11:48:39;;;;;;;9.23;4.10;;;34.70;35.10;;;;;;21232454;27;20054;-56
2022/08/02 11:58:41;;;;;;;9.35;3.97;;;35.10;34.00;;;;;;21249013;27;20092;-58
2022/08/02 12:08:43;;;;;;;9.77;3.65;;;35.30;33.60;;;;;;21247992;27;20055;-58
2022/08/02 12:29:08;;;;;;;6.38;3.50;;;35.50;32.60;;;;;;21247924;28;20096;-58
2022/08/02 12:39:15;;;;;;;9.38;4.57;;;35.70;31.60;;;;;;21246856;28;20043;-60
2022/08/02 12:49:18;;;;;;;12.98;3.92;;;35.90;31.20;;;;;;21262547;27;20082;-58
2022/08/02 12:59:39;;;;;;;7.18;3.95;;;36.20;29.80;;;;;;21263104;27;20054;-56
2022/08/02 13:09:46;;;;;;;7.53;4.10;;;36.50;29.20;;;;;;21261545;27;20200;-58
2022/08/02 13:19:49;;;;;;;8.73;3.63;;;36.70;28.10;;;;;;21260759;27;20047;-59
2022/08/02 13:29:53;;;;;;;6.72;3.50;;;36.70;28.00;;;;;;21260895;27;20103;-57
2022/08/02 13:39:55;;;;;;;8.77;4.28;;;37.00;26.80;;;;;;21240858;27;20126;-59
2022/08/02 13:49:57;;;;;;;9.07;3.58;;;37.10;26.90;;;;;;21259314;27;20146;-58
2022/08/02 13:59:58;;;;;;;5.78;3.38;;;37.40;26.30;;;;;;21257806;27;20058;-59
2022/08/02 14:10:00;;;;;;;8.18;3.65;;;37.40;25.70;;;;;;21257586;27;20058;-56
2022/08/02 14:20:02;;;;;;;12.07;4.07;;;37.40;25.90;;;;;;21256730;27;20047;-58
2022/08/02 14:30:04;;;;;;;6.80;3.08;;;37.50;25.30;;;;;;21255858;27;20055;-58
2022/08/02 14:40:07;;;;;;;7.82;3.97;;;37.80;24.10;;;;;;21256591;27;20047;-58
2022/08/02 14:50:08;;;;;;;8.07;3.10;;;38.00;23.50;;;;;;21254994;27;20050;-58
2022/08/02 15:00:11;;;;;;;8.57;3.60;;;37.90;22.30;;;;;;21253615;27;20130;-58
2022/08/02 15:10:12;;;;;;;4.82;3.33;;;37.70;23.80;;;;;;21251782;27;20493;-59
2022/08/02 15:20:14;;;;;;;9.38;4.55;;;37.90;21.50;;;;;;21251485;27;20091;-57
2022/08/02 15:30:16;;;;;;;8.98;5.03;;;38.00;21.60;;;;;;21251097;27;20403;-57
2022/08/02 15:40:17;;;;;;;7.70;3.40;;;38.00;22.40;;;;;;21248735;27;20506;-58
2022/08/02 15:50:19;;;;;;;8.07;3.95;;;37.90;22.00;;;;;;21248578;27;20082;-58
2022/08/02 16:00:21;;;;;;;5.80;3.25;;;37.60;22.20;;;;;;21249200;27;20080;-58
2022/08/02 16:10:24;;;;;;;4.45;3.25;;;37.80;22.40;;;;;;21246899;27;20052;-58
2022/08/02 16:20:25;;;;;;;9.20;4.47;;;37.90;21.10;;;;;;21246145;27;20051;-58
2022/08/02 16:30:27;;;;;;;5.85;2.67;;;37.90;21.60;;;;;;21247455;28;20079;-58
2022/08/02 16:40:29;;;;;;;8.45;3.63;;;38.10;22.00;;;;;;21246073;27;20055;-55
2022/08/02 16:50:31;;;;;;;5.40;3.08;;;38.30;22.00;;;;;;21247249;28;20509;-58
2022/08/02 17:00:34;;;;;;;11.30;4.10;;;38.40;22.00;;;;;;21245444;28;20039;-58
2022/08/02 17:10:38;;;;;;;11.15;3.97;;;38.40;22.90;;;;;;21245879;28;20055;-57
2022/08/02 17:20:39;;;;;;;8.75;3.58;;;37.60;27.00;;;;;;21244574;28;20051;-56
2022/08/02 17:30:41;;;;;;;7.25;3.42;;;37.10;24.20;;;;;;21251194;27;20047;-56
2022/08/02 17:40:43;;;;;;;8.63;3.72;;;37.00;24.80;;;;;;21258158;27;20099;-58
2022/08/02 17:50:45;;;;;;;7.95;4.03;;;36.90;23.70;;;;;;21257666;27;20087;-56
2022/08/02 18:00:47;;;;;;;7.25;3.60;;;36.60;25.50;;;;;;21257682;27;20494;-57
2022/08/02 18:10:48;;;;;;;5.30;3.92;;;36.30;26.20;;;;;;21256176;27;20058;-59
2022/08/02 18:20:50;;;;;;;8.02;3.47;;;36.20;25.70;;;;;;21255694;27;20044;-57
2022/08/02 18:30:52;;;;;;;7.18;4.05;;;36.10;23.70;;;;;;21254478;27;20140;-59
2022/08/02 18:40:54;;;;;;;8.52;3.70;;;36.10;19.50;;;;;;21252483;27;20191;-58
2022/08/02 18:50:55;;;;;;;6.53;3.00;;;35.90;25.70;;;;;;21254604;27;20082;-58
2022/08/02 19:00:57;;;;;;;6.18;3.20;;;35.20;25.70;;;;;;21253732;27;20058;-56
2022/08/02 19:10:58;;;;;;;11.48;4.72;;;34.90;26.70;;;;;;21252683;27;20054;-59
2022/08/02 19:21:00;;;;;;;6.47;3.63;;;34.70;27.90;;;;;;21252653;27;20050;-57
2022/08/02 19:31:02;;;;;;;7.32;3.85;;;34.30;28.60;;;;;;21252389;27;20410;-57
2022/08/02 19:41:04;;;;;;;8.60;4.10;;;34.10;28.90;;;;;;21249843;27;20078;-59
2022/08/02 19:51:05;;;;;;;15.70;4.80;;;34.10;28.30;;;;;;21248756;27;20082;-57
2022/08/02 20:01:08;;;;;;;13.18;5.63;;;34.20;28.70;;;;;;21249184;27;20543;-55
2022/08/02 20:11:10;;;;;;;11.25;5.22;;;34.20;29.60;;;;;;21230821;27;20055;-57
2022/08/02 20:21:12;;;;;;;8.82;4.22;;;34.00;28.70;;;;;;21249275;27;20047;-58
2022/08/02 20:31:13;;;;;;;17.48;6.05;;;33.90;28.40;;;;;;21248389;28;20079;-59
2022/08/02 20:41:16;;;;;;;8.90;4.75;;;33.00;40.40;;;;;;21246925;28;20134;-58
2022/08/02 20:51:17;;;;;;;8.93;4.25;;;30.40;46.80;;;;;;21247681;28;20051;-58
2022/08/02 21:01:19;;;;;;;7.57;4.30;;;29.90;43.90;;;;;;21247605;27;20447;-57
2022/08/02 21:11:22;;;;;;;9.40;3.33;;;29.90;41.20;;;;;;21261842;27;20050;-57
2022/08/02 21:21:24;;;;;;;5.78;2.65;;;30.00;38.70;;;;;;21261159;27;20073;-57
2022/08/02 21:31:26;;;;;;;6.30;3.00;;;30.20;36.20;;;;;;21242285;27;20505;-57
2022/08/02 21:41:28;;;;;;;5.65;3.40;;;30.10;38.70;;;;;;21259450;27;20138;-56
2022/08/02 21:51:30;;;;;;;4.18;2.75;;;30.10;36.90;;;;;;21258706;27;20051;-59
2022/08/02 22:01:32;;;;;;;5.13;2.78;;;30.20;37.20;;;;;;21258546;27;20426;-57
2022/08/02 22:11:34;;;;;;;6.10;2.65;;;30.20;37.00;;;;;;21257958;27;20043;-57
2022/08/02 22:21:36;;;;;;;4.85;2.97;;;30.10;36.10;;;;;;21255345;27;20051;-56
2022/08/02 22:31:39;;;;;;;4.03;2.90;;;30.20;36.00;;;;;;21255790;27;20047;-56
2022/08/02 22:41:40;;;;;;;4.10;2.95;;;30.30;35.40;;;;;;21254777;27;20055;-56
2022/08/02 22:51:42;;;;;;;3.85;2.42;;;30.40;34.60;;;;;;21254004;27;20082;-57
2022/08/02 23:01:43;;;;;;;4.90;2.50;;;30.40;33.60;;;;;;21253519;27;20051;-58
2022/08/02 23:11:45;;;;;;;5.93;2.70;;;30.30;33.90;;;;;;21252080;27;20054;-56
2022/08/02 23:21:46;;;;;;;5.63;2.95;;;30.40;34.10;;;;;;21251783;27;20074;-56
2022/08/02 23:31:48;;;;;;;9.23;3.72;;;30.40;34.80;;;;;;21231781;27;20051;-57
2022/08/02 23:41:50;;;;;;;8.43;4.07;;;30.20;37.60;;;;;;21250253;27;20095;-56
2022/08/02 23:51:54;;;;;;;7.68;3.55;;;29.90;40.20;;;;;;21249107;27;20097;-57
